sensor_id;sensor_type;location;lat;lon;timestamp;P1;durP1;ratioP1;P2;durP2;ratioP2
27225;SDS011;14732;51.074;3.788;2023-12-07T00:02:08;112.88;;;21.80;;
27225;SDS011;14732;51.074;3.788;2023-12-07T00:04:34;95.47;;;20.60;;
27225;SDS011;14732;51.074;3.788;2023-12-07T00:07:00;116.63;;;20.30;;
27225;SDS011;14732;51.074;3.788;2023-12-07T00:09:25;185.88;;;23.17;;
27225;SDS011;14732;51.074;3.788;2023-12-07T00:11:51;115.28;;;20.70;;
27225;SDS011;14732;51.074;3.788;2023-12-07T00:14:17;125.75;;;19.83;;
27225;SDS011;14732;51.074;3.788;2023-12-07T00:16:42;172.43;;;23.25;;
27225;SDS011;14732;51.074;3.788;2023-12-07T00:19:08;92.20;;;20.10;;
27225;SDS011;14732;51.074;3.788;2023-12-07T00:21:33;170.70;;;22.15;;
27225;SDS011;14732;51.074;3.788;2023-12-07T00:23:59;186.82;;;22.55;;
27225;SDS011;14732;51.074;3.788;2023-12-07T00:26:26;164.02;;;21.23;;
27225;SDS011;14732;51.074;3.788;2023-12-07T00:28:51;149.90;;;21.90;;
27225;SDS011;14732;51.074;3.788;2023-12-07T00:31:17;112.40;;;20.45;;
27225;SDS011;14732;51.074;3.788;2023-12-07T00:33:43;110.95;;;19.83;;
27225;SDS011;14732;51.074;3.788;2023-12-07T00:36:10;262.55;;;25.35;;
27225;SDS011;14732;51.074;3.788;2023-12-07T00:38:35;169.00;;;23.42;;
27225;SDS011;14732;51.074;3.788;2023-12-07T00:41:01;157.70;;;23.17;;
27225;SDS011;14732;51.074;3.788;2023-12-07T00:43:27;166.52;;;23.05;;
27225;SDS011;14732;51.074;3.788;2023-12-07T00:45:52;166.77;;;22.35;;
27225;SDS011;14732;51.074;3.788;2023-12-07T00:48:18;298.08;;;27.20;;
27225;SDS011;14732;51.074;3.788;2023-12-07T00:50:44;107.72;;;20.02;;
27225;SDS011;14732;51.074;3.788;2023-12-07T00:53:09;104.97;;;20.90;;
27225;SDS011;14732;51.074;3.788;2023-12-07T00:55:35;225.30;;;23.60;;
27225;SDS011;14732;51.074;3.788;2023-12-07T00:58:00;123.65;;;20.10;;
27225;SDS011;14732;51.074;3.788;2023-12-07T01:00:27;99.38;;;19.45;;
27225;SDS011;14732;51.074;3.788;2023-12-07T01:02:52;111.32;;;19.42;;
27225;SDS011;14732;51.074;3.788;2023-12-07T01:05:18;92.32;;;20.35;;
27225;SDS011;14732;51.074;3.788;2023-12-07T01:07:44;73.68;;;19.17;;
27225;SDS011;14732;51.074;3.788;2023-12-07T01:10:09;117.65;;;21.23;;
27225;SDS011;14732;51.074;3.788;2023-12-07T01:12:35;117.03;;;20.08;;
27225;SDS011;14732;51.074;3.788;2023-12-07T01:15:01;70.72;;;18.23;;
27225;SDS011;14732;51.074;3.788;2023-12-07T01:17:27;72.43;;;17.55;;
27225;SDS011;14732;51.074;3.788;2023-12-07T01:19:53;84.20;;;17.67;;
27225;SDS011;14732;51.074;3.788;2023-12-07T01:22:19;84.90;;;17.77;;
27225;SDS011;14732;51.074;3.788;2023-12-07T01:24:45;125.60;;;20.15;;
27225;SDS011;14732;51.074;3.788;2023-12-07T01:27:11;85.63;;;17.77;;
27225;SDS011;14732;51.074;3.788;2023-12-07T01:29:37;96.07;;;17.67;;
27225;SDS011;14732;51.074;3.788;2023-12-07T01:32:02;108.60;;;20.08;;
27225;SDS011;14732;51.074;3.788;2023-12-07T01:34:28;89.57;;;17.70;;
27225;SDS011;14732;51.074;3.788;2023-12-07T01:36:54;71.55;;;18.38;;
27225;SDS011;14732;51.074;3.788;2023-12-07T01:39:19;74.68;;;18.52;;
27225;SDS011;14732;51.074;3.788;2023-12-07T01:41:46;64.05;;;17.70;;
27225;SDS011;14732;51.074;3.788;2023-12-07T01:44:11;151.95;;;21.67;;
27225;SDS011;14732;51.074;3.788;2023-12-07T01:46:37;162.57;;;20.40;;
27225;SDS011;14732;51.074;3.788;2023-12-07T01:49:03;110.38;;;19.88;;
27225;SDS011;14732;51.074;3.788;2023-12-07T01:51:29;214.70;;;22.58;;
27225;SDS011;14732;51.074;3.788;2023-12-07T01:53:55;169.45;;;21.73;;
27225;SDS011;14732;51.074;3.788;2023-12-07T01:56:21;162.57;;;22.25;;
27225;SDS011;14732;51.074;3.788;2023-12-07T01:58:49;86.17;;;21.00;;
27225;SDS011;14732;51.074;3.788;2023-12-07T02:01:15;91.32;;;21.08;;
27225;SDS011;14732;51.074;3.788;2023-12-07T02:03:41;120.47;;;24.15;;
27225;SDS011;14732;51.074;3.788;2023-12-07T02:06:07;115.78;;;22.67;;
27225;SDS011;14732;51.074;3.788;2023-12-07T02:08:34;120.88;;;22.13;;
27225;SDS011;14732;51.074;3.788;2023-12-07T02:11:00;115.43;;;21.95;;
27225;SDS011;14732;51.074;3.788;2023-12-07T02:13:25;109.55;;;22.23;;
27225;SDS011;14732;51.074;3.788;2023-12-07T02:15:52;120.35;;;22.73;;
27225;SDS011;14732;51.074;3.788;2023-12-07T02:18:38;116.00;;;22.98;;
27225;SDS011;14732;51.074;3.788;2023-12-07T02:21:13;109.10;;;22.17;;
27225;SDS011;14732;51.074;3.788;2023-12-07T02:23:45;120.65;;;24.85;;
27225;SDS011;14732;51.074;3.788;2023-12-07T02:26:14;108.37;;;23.47;;
27225;SDS011;14732;51.074;3.788;2023-12-07T02:28:45;115.32;;;23.80;;
27225;SDS011;14732;51.074;3.788;2023-12-07T02:31:11;116.78;;;25.10;;
27225;SDS011;14732;51.074;3.788;2023-12-07T02:33:36;104.38;;;24.73;;
27225;SDS011;14732;51.074;3.788;2023-12-07T02:36:02;105.35;;;23.90;;
27225;SDS011;14732;51.074;3.788;2023-12-07T02:38:28;113.15;;;25.45;;
27225;SDS011;14732;51.074;3.788;2023-12-07T02:40:54;92.72;;;23.15;;
27225;SDS011;14732;51.074;3.788;2023-12-07T02:43:21;112.65;;;25.33;;
27225;SDS011;14732;51.074;3.788;2023-12-07T02:45:47;95.57;;;23.40;;
27225;SDS011;14732;51.074;3.788;2023-12-07T02:48:13;102.50;;;23.75;;
27225;SDS011;14732;51.074;3.788;2023-12-07T02:50:39;105.28;;;24.75;;
27225;SDS011;14732;51.074;3.788;2023-12-07T02:53:05;112.05;;;24.80;;
27225;SDS011;14732;51.074;3.788;2023-12-07T02:55:31;115.47;;;25.27;;
27225;SDS011;14732;51.074;3.788;2023-12-07T02:57:57;106.78;;;26.00;;
27225;SDS011;14732;51.074;3.788;2023-12-07T03:00:22;107.10;;;25.40;;
27225;SDS011;14732;51.074;3.788;2023-12-07T03:02:51;106.43;;;25.33;;
27225;SDS011;14732;51.074;3.788;2023-12-07T03:05:17;111.15;;;25.27;;
27225;SDS011;14732;51.074;3.788;2023-12-07T03:07:45;109.78;;;23.83;;
27225;SDS011;14732;51.074;3.788;2023-12-07T03:10:11;101.50;;;24.23;;
27225;SDS011;14732;51.074;3.788;2023-12-07T03:12:36;123.00;;;26.80;;
27225;SDS011;14732;51.074;3.788;2023-12-07T03:15:02;115.07;;;26.23;;
27225;SDS011;14732;51.074;3.788;2023-12-07T03:17:29;114.53;;;26.48;;
27225;SDS011;14732;51.074;3.788;2023-12-07T03:19:55;115.85;;;26.42;;
27225;SDS011;14732;51.074;3.788;2023-12-07T03:22:20;119.70;;;26.08;;
27225;SDS011;14732;51.074;3.788;2023-12-07T03:24:48;110.68;;;25.30;;
27225;SDS011;14732;51.074;3.788;2023-12-07T03:27:17;117.88;;;26.90;;
27225;SDS011;14732;51.074;3.788;2023-12-07T03:29:43;117.40;;;26.90;;
27225;SDS011;14732;51.074;3.788;2023-12-07T03:32:08;114.85;;;26.45;;
27225;SDS011;14732;51.074;3.788;2023-12-07T03:34:34;113.95;;;25.63;;
27225;SDS011;14732;51.074;3.788;2023-12-07T03:37:03;98.70;;;23.17;;
27225;SDS011;14732;51.074;3.788;2023-12-07T03:39:28;87.47;;;23.58;;
27225;SDS011;14732;51.074;3.788;2023-12-07T03:41:54;106.53;;;24.88;;
27225;SDS011;14732;51.074;3.788;2023-12-07T03:44:26;93.25;;;22.83;;
27225;SDS011;14732;51.074;3.788;2023-12-07T03:46:51;92.40;;;21.88;;
27225;SDS011;14732;51.074;3.788;2023-12-07T03:49:18;100.35;;;23.45;;
27225;SDS011;14732;51.074;3.788;2023-12-07T03:51:44;88.03;;;22.77;;
27225;SDS011;14732;51.074;3.788;2023-12-07T03:54:12;96.40;;;23.13;;
27225;SDS011;14732;51.074;3.788;2023-12-07T03:56:38;99.65;;;23.20;;
27225;SDS011;14732;51.074;3.788;2023-12-07T03:59:05;88.40;;;22.67;;
27225;SDS011;14732;51.074;3.788;2023-12-07T04:01:31;86.25;;;22.10;;
27225;SDS011;14732;51.074;3.788;2023-12-07T04:03:57;96.38;;;23.58;;
27225;SDS011;14732;51.074;3.788;2023-12-07T04:06:24;101.25;;;24.98;;
27225;SDS011;14732;51.074;3.788;2023-12-07T04:08:50;93.93;;;25.83;;
27225;SDS011;14732;51.074;3.788;2023-12-07T04:11:16;99.18;;;25.35;;
27225;SDS011;14732;51.074;3.788;2023-12-07T04:13:42;106.35;;;25.17;;
27225;SDS011;14732;51.074;3.788;2023-12-07T04:16:08;95.63;;;25.02;;
27225;SDS011;14732;51.074;3.788;2023-12-07T04:18:35;84.97;;;22.50;;
27225;SDS011;14732;51.074;3.788;2023-12-07T04:21:01;85.25;;;22.92;;
27225;SDS011;14732;51.074;3.788;2023-12-07T04:23:27;84.85;;;22.92;;
27225;SDS011;14732;51.074;3.788;2023-12-07T04:25:53;82.28;;;21.48;;
27225;SDS011;14732;51.074;3.788;2023-12-07T04:28:19;89.65;;;22.38;;
27225;SDS011;14732;51.074;3.788;2023-12-07T04:30:45;81.78;;;21.88;;
27225;SDS011;14732;51.074;3.788;2023-12-07T04:33:10;84.18;;;21.88;;
27225;SDS011;14732;51.074;3.788;2023-12-07T04:35:36;83.85;;;22.95;;
27225;SDS011;14732;51.074;3.788;2023-12-07T04:38:02;76.28;;;21.60;;
27225;SDS011;14732;51.074;3.788;2023-12-07T04:40:27;76.88;;;21.85;;
27225;SDS011;14732;51.074;3.788;2023-12-07T04:42:53;95.80;;;24.98;;
27225;SDS011;14732;51.074;3.788;2023-12-07T04:45:19;88.60;;;23.27;;
27225;SDS011;14732;51.074;3.788;2023-12-07T04:47:45;95.10;;;25.08;;
27225;SDS011;14732;51.074;3.788;2023-12-07T04:50:11;102.30;;;26.42;;
27225;SDS011;14732;51.074;3.788;2023-12-07T04:52:37;100.13;;;27.67;;
27225;SDS011;14732;51.074;3.788;2023-12-07T04:55:02;105.50;;;29.75;;
27225;SDS011;14732;51.074;3.788;2023-12-07T04:57:28;109.05;;;30.45;;
27225;SDS011;14732;51.074;3.788;2023-12-07T04:59:54;123.38;;;31.50;;
27225;SDS011;14732;51.074;3.788;2023-12-07T05:02:21;123.32;;;32.08;;
27225;SDS011;14732;51.074;3.788;2023-12-07T05:04:46;111.18;;;30.35;;
27225;SDS011;14732;51.074;3.788;2023-12-07T05:07:12;126.50;;;30.80;;
27225;SDS011;14732;51.074;3.788;2023-12-07T05:09:38;105.20;;;30.25;;
27225;SDS011;14732;51.074;3.788;2023-12-07T05:12:05;93.70;;;27.05;;
27225;SDS011;14732;51.074;3.788;2023-12-07T05:14:31;84.13;;;26.33;;
27225;SDS011;14732;51.074;3.788;2023-12-07T05:16:57;98.13;;;30.67;;
27225;SDS011;14732;51.074;3.788;2023-12-07T05:19:23;90.90;;;28.55;;
27225;SDS011;14732;51.074;3.788;2023-12-07T05:21:49;87.53;;;30.05;;
27225;SDS011;14732;51.074;3.788;2023-12-07T05:24:15;82.55;;;26.10;;
27225;SDS011;14732;51.074;3.788;2023-12-07T05:26:41;70.18;;;25.08;;
27225;SDS011;14732;51.074;3.788;2023-12-07T05:29:07;68.70;;;25.90;;
27225;SDS011;14732;51.074;3.788;2023-12-07T05:31:33;72.72;;;24.52;;
27225;SDS011;14732;51.074;3.788;2023-12-07T05:34:00;75.45;;;25.55;;
27225;SDS011;14732;51.074;3.788;2023-12-07T05:36:26;64.70;;;24.98;;
27225;SDS011;14732;51.074;3.788;2023-12-07T05:38:52;68.15;;;24.38;;
27225;SDS011;14732;51.074;3.788;2023-12-07T05:41:17;66.10;;;23.77;;
27225;SDS011;14732;51.074;3.788;2023-12-07T05:43:43;65.93;;;24.27;;
27225;SDS011;14732;51.074;3.788;2023-12-07T05:46:09;55.75;;;23.50;;
27225;SDS011;14732;51.074;3.788;2023-12-07T05:48:35;52.05;;;22.13;;
27225;SDS011;14732;51.074;3.788;2023-12-07T05:51:04;58.65;;;22.88;;
27225;SDS011;14732;51.074;3.788;2023-12-07T05:53:30;53.05;;;21.85;;
27225;SDS011;14732;51.074;3.788;2023-12-07T05:55:57;50.47;;;21.60;;
27225;SDS011;14732;51.074;3.788;2023-12-07T05:58:23;50.65;;;21.33;;
27225;SDS011;14732;51.074;3.788;2023-12-07T06:00:49;54.92;;;23.00;;
27225;SDS011;14732;51.074;3.788;2023-12-07T06:03:15;50.28;;;20.75;;
27225;SDS011;14732;51.074;3.788;2023-12-07T06:05:41;59.65;;;22.38;;
27225;SDS011;14732;51.074;3.788;2023-12-07T06:08:07;48.83;;;21.40;;
27225;SDS011;14732;51.074;3.788;2023-12-07T06:10:33;50.03;;;21.05;;
27225;SDS011;14732;51.074;3.788;2023-12-07T06:12:59;54.58;;;23.08;;
27225;SDS011;14732;51.074;3.788;2023-12-07T06:15:26;51.00;;;21.05;;
27225;SDS011;14732;51.074;3.788;2023-12-07T06:17:52;51.92;;;21.95;;
27225;SDS011;14732;51.074;3.788;2023-12-07T06:20:19;48.13;;;21.58;;
27225;SDS011;14732;51.074;3.788;2023-12-07T06:22:45;48.30;;;22.17;;
27225;SDS011;14732;51.074;3.788;2023-12-07T06:25:11;48.88;;;21.20;;
27225;SDS011;14732;51.074;3.788;2023-12-07T06:27:36;46.70;;;21.42;;
27225;SDS011;14732;51.074;3.788;2023-12-07T06:30:02;46.78;;;20.98;;
27225;SDS011;14732;51.074;3.788;2023-12-07T06:32:30;45.40;;;19.58;;
27225;SDS011;14732;51.074;3.788;2023-12-07T06:34:57;47.47;;;20.40;;
27225;SDS011;14732;51.074;3.788;2023-12-07T06:37:22;48.05;;;21.13;;
27225;SDS011;14732;51.074;3.788;2023-12-07T06:39:48;38.55;;;19.48;;
27225;SDS011;14732;51.074;3.788;2023-12-07T06:42:14;42.58;;;20.05;;
27225;SDS011;14732;51.074;3.788;2023-12-07T06:44:40;37.70;;;18.52;;
27225;SDS011;14732;51.074;3.788;2023-12-07T06:47:08;39.67;;;18.58;;
27225;SDS011;14732;51.074;3.788;2023-12-07T06:49:34;37.75;;;18.63;;
27225;SDS011;14732;51.074;3.788;2023-12-07T06:52:01;39.08;;;18.08;;
27225;SDS011;14732;51.074;3.788;2023-12-07T06:54:26;37.97;;;17.58;;
27225;SDS011;14732;51.074;3.788;2023-12-07T06:56:52;32.83;;;17.25;;
27225;SDS011;14732;51.074;3.788;2023-12-07T06:59:18;34.38;;;16.65;;
27225;SDS011;14732;51.074;3.788;2023-12-07T07:01:45;36.70;;;16.75;;
27225;SDS011;14732;51.074;3.788;2023-12-07T07:04:10;33.90;;;16.52;;
27225;SDS011;14732;51.074;3.788;2023-12-07T07:06:36;33.38;;;15.93;;
27225;SDS011;14732;51.074;3.788;2023-12-07T07:09:03;29.63;;;15.73;;
27225;SDS011;14732;51.074;3.788;2023-12-07T07:11:30;31.20;;;15.65;;
27225;SDS011;14732;51.074;3.788;2023-12-07T07:13:55;28.92;;;15.88;;
27225;SDS011;14732;51.074;3.788;2023-12-07T07:16:21;34.58;;;16.13;;
27225;SDS011;14732;51.074;3.788;2023-12-07T07:18:46;28.20;;;15.10;;
27225;SDS011;14732;51.074;3.788;2023-12-07T07:21:12;35.80;;;14.93;;
27225;SDS011;14732;51.074;3.788;2023-12-07T07:23:38;28.77;;;15.07;;
27225;SDS011;14732;51.074;3.788;2023-12-07T07:26:04;31.77;;;15.40;;
27225;SDS011;14732;51.074;3.788;2023-12-07T07:28:29;33.70;;;15.18;;
27225;SDS011;14732;51.074;3.788;2023-12-07T07:30:55;33.67;;;16.25;;
27225;SDS011;14732;51.074;3.788;2023-12-07T07:33:21;37.60;;;16.77;;
27225;SDS011;14732;51.074;3.788;2023-12-07T07:35:46;31.65;;;16.02;;
27225;SDS011;14732;51.074;3.788;2023-12-07T07:38:12;29.13;;;16.33;;
27225;SDS011;14732;51.074;3.788;2023-12-07T07:40:39;30.63;;;15.77;;
27225;SDS011;14732;51.074;3.788;2023-12-07T07:43:05;30.60;;;16.00;;
27225;SDS011;14732;51.074;3.788;2023-12-07T07:45:30;31.85;;;15.90;;
27225;SDS011;14732;51.074;3.788;2023-12-07T07:47:56;30.30;;;15.45;;
27225;SDS011;14732;51.074;3.788;2023-12-07T07:50:22;42.47;;;21.00;;
27225;SDS011;14732;51.074;3.788;2023-12-07T07:52:47;64.72;;;31.92;;
27225;SDS011;14732;51.074;3.788;2023-12-07T07:55:13;119.97;;;55.40;;
27225;SDS011;14732;51.074;3.788;2023-12-07T07:57:39;155.07;;;61.50;;
27225;SDS011;14732;51.074;3.788;2023-12-07T08:00:04;165.07;;;71.55;;
27225;SDS011;14732;51.074;3.788;2023-12-07T08:02:33;221.60;;;86.82;;
27225;SDS011;14732;51.074;3.788;2023-12-07T08:04:59;160.90;;;61.30;;
27225;SDS011;14732;51.074;3.788;2023-12-07T08:07:24;40.35;;;21.63;;
27225;SDS011;14732;51.074;3.788;2023-12-07T08:09:50;73.32;;;35.47;;
27225;SDS011;14732;51.074;3.788;2023-12-07T08:12:16;123.03;;;51.90;;
27225;SDS011;14732;51.074;3.788;2023-12-07T08:14:41;38.55;;;18.77;;
27225;SDS011;14732;51.074;3.788;2023-12-07T08:17:08;34.60;;;17.65;;
27225;SDS011;14732;51.074;3.788;2023-12-07T08:19:35;115.28;;;56.75;;
27225;SDS011;14732;51.074;3.788;2023-12-07T08:22:01;26.48;;;14.68;;
27225;SDS011;14732;51.074;3.788;2023-12-07T08:24:27;44.65;;;21.80;;
27225;SDS011;14732;51.074;3.788;2023-12-07T08:26:52;32.47;;;14.77;;
27225;SDS011;14732;51.074;3.788;2023-12-07T08:29:18;31.35;;;13.82;;
27225;SDS011;14732;51.074;3.788;2023-12-07T08:31:44;25.33;;;13.90;;
27225;SDS011;14732;51.074;3.788;2023-12-07T08:34:09;24.60;;;13.35;;
27225;SDS011;14732;51.074;3.788;2023-12-07T08:36:35;27.48;;;13.88;;
27225;SDS011;14732;51.074;3.788;2023-12-07T08:39:01;28.15;;;14.15;;
27225;SDS011;14732;51.074;3.788;2023-12-07T08:41:26;29.70;;;13.52;;
27225;SDS011;14732;51.074;3.788;2023-12-07T08:43:52;24.50;;;14.45;;
27225;SDS011;14732;51.074;3.788;2023-12-07T08:46:18;28.40;;;15.02;;
27225;SDS011;14732;51.074;3.788;2023-12-07T08:48:43;28.80;;;14.55;;
27225;SDS011;14732;51.074;3.788;2023-12-07T08:51:09;30.98;;;14.15;;
27225;SDS011;14732;51.074;3.788;2023-12-07T08:53:35;32.17;;;14.15;;
27225;SDS011;14732;51.074;3.788;2023-12-07T08:56:01;25.67;;;14.23;;
27225;SDS011;14732;51.074;3.788;2023-12-07T08:58:27;27.00;;;14.40;;
27225;SDS011;14732;51.074;3.788;2023-12-07T09:00:53;28.45;;;14.75;;
27225;SDS011;14732;51.074;3.788;2023-12-07T09:03:18;28.73;;;14.63;;
27225;SDS011;14732;51.074;3.788;2023-12-07T09:05:44;27.58;;;14.50;;
27225;SDS011;14732;51.074;3.788;2023-12-07T09:08:10;26.33;;;14.55;;
27225;SDS011;14732;51.074;3.788;2023-12-07T09:10:36;24.30;;;13.20;;
27225;SDS011;14732;51.074;3.788;2023-12-07T09:13:01;24.95;;;13.65;;
27225;SDS011;14732;51.074;3.788;2023-12-07T09:15:27;27.23;;;13.13;;
27225;SDS011;14732;51.074;3.788;2023-12-07T09:17:53;30.73;;;14.63;;
27225;SDS011;14732;51.074;3.788;2023-12-07T09:20:19;27.45;;;13.98;;
27225;SDS011;14732;51.074;3.788;2023-12-07T09:22:45;28.48;;;13.10;;
27225;SDS011;14732;51.074;3.788;2023-12-07T09:25:12;28.52;;;14.40;;
27225;SDS011;14732;51.074;3.788;2023-12-07T09:27:38;27.58;;;13.32;;
27225;SDS011;14732;51.074;3.788;2023-12-07T09:30:05;26.77;;;13.50;;
27225;SDS011;14732;51.074;3.788;2023-12-07T09:32:39;27.30;;;13.18;;
27225;SDS011;14732;51.074;3.788;2023-12-07T09:35:07;29.73;;;13.65;;
27225;SDS011;14732;51.074;3.788;2023-12-07T09:37:39;24.02;;;13.75;;
27225;SDS011;14732;51.074;3.788;2023-12-07T09:40:05;26.05;;;14.68;;
27225;SDS011;14732;51.074;3.788;2023-12-07T09:42:35;25.70;;;13.65;;
27225;SDS011;14732;51.074;3.788;2023-12-07T09:45:01;24.52;;;12.48;;
27225;SDS011;14732;51.074;3.788;2023-12-07T09:47:26;29.83;;;15.23;;
27225;SDS011;14732;51.074;3.788;2023-12-07T09:49:53;23.80;;;13.80;;
27225;SDS011;14732;51.074;3.788;2023-12-07T09:52:19;25.65;;;13.15;;
27225;SDS011;14732;51.074;3.788;2023-12-07T09:54:47;24.80;;;13.07;;
27225;SDS011;14732;51.074;3.788;2023-12-07T09:57:15;24.52;;;12.63;;
27225;SDS011;14732;51.074;3.788;2023-12-07T09:59:41;23.02;;;12.25;;
27225;SDS011;14732;51.074;3.788;2023-12-07T10:02:07;23.15;;;12.63;;
27225;SDS011;14732;51.074;3.788;2023-12-07T10:04:33;21.83;;;12.07;;
27225;SDS011;14732;51.074;3.788;2023-12-07T10:06:58;24.60;;;12.70;;
27225;SDS011;14732;51.074;3.788;2023-12-07T10:09:25;25.35;;;12.05;;
27225;SDS011;14732;51.074;3.788;2023-12-07T10:12:01;22.40;;;12.52;;
27225;SDS011;14732;51.074;3.788;2023-12-07T10:14:30;25.08;;;13.60;;
27225;SDS011;14732;51.074;3.788;2023-12-07T10:16:56;22.42;;;12.23;;
27225;SDS011;14732;51.074;3.788;2023-12-07T10:19:22;21.45;;;11.48;;
27225;SDS011;14732;51.074;3.788;2023-12-07T10:21:49;21.60;;;12.02;;
27225;SDS011;14732;51.074;3.788;2023-12-07T10:24:15;22.63;;;12.23;;
27225;SDS011;14732;51.074;3.788;2023-12-07T10:26:41;21.63;;;11.35;;
27225;SDS011;14732;51.074;3.788;2023-12-07T10:29:09;23.10;;;11.48;;
27225;SDS011;14732;51.074;3.788;2023-12-07T10:31:36;22.80;;;12.05;;
27225;SDS011;14732;51.074;3.788;2023-12-07T10:34:02;19.10;;;10.95;;
27225;SDS011;14732;51.074;3.788;2023-12-07T10:36:29;19.63;;;10.70;;
27225;SDS011;14732;51.074;3.788;2023-12-07T10:38:55;24.00;;;11.63;;
27225;SDS011;14732;51.074;3.788;2023-12-07T10:41:21;17.23;;;10.93;;
27225;SDS011;14732;51.074;3.788;2023-12-07T10:43:52;20.67;;;11.25;;
27225;SDS011;14732;51.074;3.788;2023-12-07T10:46:23;19.08;;;11.60;;
27225;SDS011;14732;51.074;3.788;2023-12-07T10:48:48;19.60;;;11.45;;
27225;SDS011;14732;51.074;3.788;2023-12-07T10:54:06;22.63;;;10.73;;
27225;SDS011;14732;51.074;3.788;2023-12-07T10:56:43;20.88;;;11.70;;
27225;SDS011;14732;51.074;3.788;2023-12-07T10:59:10;16.55;;;10.57;;
27225;SDS011;14732;51.074;3.788;2023-12-07T11:01:40;22.58;;;11.43;;
27225;SDS011;14732;51.074;3.788;2023-12-07T11:04:07;19.95;;;11.05;;
27225;SDS011;14732;51.074;3.788;2023-12-07T11:06:40;21.50;;;11.90;;
27225;SDS011;14732;51.074;3.788;2023-12-07T11:09:08;22.83;;;10.82;;
27225;SDS011;14732;51.074;3.788;2023-12-07T11:14:07;27.55;;;12.70;;
27225;SDS011;14732;51.074;3.788;2023-12-07T11:16:40;38.13;;;20.58;;
27225;SDS011;14732;51.074;3.788;2023-12-07T11:21:54;17.95;;;11.25;;
27225;SDS011;14732;51.074;3.788;2023-12-07T11:24:24;18.73;;;10.65;;
27225;SDS011;14732;51.074;3.788;2023-12-07T11:26:59;17.50;;;10.40;;
27225;SDS011;14732;51.074;3.788;2023-12-07T11:29:25;17.55;;;10.48;;
27225;SDS011;14732;51.074;3.788;2023-12-07T11:31:55;20.77;;;11.85;;
27225;SDS011;14732;51.074;3.788;2023-12-07T11:34:38;16.48;;;10.30;;
27225;SDS011;14732;51.074;3.788;2023-12-07T11:37:08;20.65;;;9.88;;
27225;SDS011;14732;51.074;3.788;2023-12-07T11:39:36;18.83;;;10.45;;
27225;SDS011;14732;51.074;3.788;2023-12-07T11:42:06;18.25;;;10.90;;
27225;SDS011;14732;51.074;3.788;2023-12-07T11:44:34;20.77;;;10.80;;
27225;SDS011;14732;51.074;3.788;2023-12-07T11:47:03;19.45;;;9.55;;
27225;SDS011;14732;51.074;3.788;2023-12-07T11:49:30;16.33;;;9.95;;
27225;SDS011;14732;51.074;3.788;2023-12-07T11:51:57;19.23;;;9.52;;
27225;SDS011;14732;51.074;3.788;2023-12-07T11:54:23;21.40;;;9.70;;
27225;SDS011;14732;51.074;3.788;2023-12-07T11:56:54;17.67;;;9.43;;
27225;SDS011;14732;51.074;3.788;2023-12-07T11:59:20;20.10;;;10.35;;
27225;SDS011;14732;51.074;3.788;2023-12-07T12:01:47;20.67;;;10.25;;
27225;SDS011;14732;51.074;3.788;2023-12-07T12:04:14;18.55;;;10.30;;
27225;SDS011;14732;51.074;3.788;2023-12-07T12:06:42;17.35;;;9.35;;
27225;SDS011;14732;51.074;3.788;2023-12-07T12:09:12;18.10;;;9.35;;
27225;SDS011;14732;51.074;3.788;2023-12-07T12:11:46;20.92;;;9.23;;
27225;SDS011;14732;51.074;3.788;2023-12-07T12:14:12;16.60;;;8.75;;
27225;SDS011;14732;51.074;3.788;2023-12-07T12:16:39;16.92;;;9.80;;
27225;SDS011;14732;51.074;3.788;2023-12-07T12:19:05;19.55;;;9.10;;
27225;SDS011;14732;51.074;3.788;2023-12-07T12:21:34;17.25;;;8.05;;
27225;SDS011;14732;51.074;3.788;2023-12-07T12:24:04;17.23;;;8.90;;
27225;SDS011;14732;51.074;3.788;2023-12-07T12:26:31;15.02;;;8.75;;
27225;SDS011;14732;51.074;3.788;2023-12-07T12:28:59;20.20;;;10.90;;
27225;SDS011;14732;51.074;3.788;2023-12-07T12:31:25;15.75;;;9.90;;
27225;SDS011;14732;51.074;3.788;2023-12-07T12:33:50;16.92;;;9.55;;
27225;SDS011;14732;51.074;3.788;2023-12-07T12:36:16;17.65;;;10.60;;
27225;SDS011;14732;51.074;3.788;2023-12-07T12:38:48;19.27;;;8.70;;
27225;SDS011;14732;51.074;3.788;2023-12-07T12:41:20;13.88;;;7.68;;
27225;SDS011;14732;51.074;3.788;2023-12-07T12:43:47;15.80;;;7.97;;
27225;SDS011;14732;51.074;3.788;2023-12-07T12:46:13;12.50;;;7.90;;
27225;SDS011;14732;51.074;3.788;2023-12-07T12:48:59;12.63;;;7.35;;
27225;SDS011;14732;51.074;3.788;2023-12-07T12:51:26;12.13;;;6.78;;
27225;SDS011;14732;51.074;3.788;2023-12-07T12:53:54;12.38;;;6.80;;
27225;SDS011;14732;51.074;3.788;2023-12-07T12:56:21;12.85;;;7.35;;
27225;SDS011;14732;51.074;3.788;2023-12-07T12:58:51;11.52;;;6.60;;
27225;SDS011;14732;51.074;3.788;2023-12-07T13:01:17;13.45;;;7.07;;
27225;SDS011;14732;51.074;3.788;2023-12-07T13:03:44;12.50;;;7.03;;
27225;SDS011;14732;51.074;3.788;2023-12-07T13:06:13;11.73;;;6.97;;
27225;SDS011;14732;51.074;3.788;2023-12-07T13:08:43;11.93;;;6.57;;
27225;SDS011;14732;51.074;3.788;2023-12-07T13:11:12;12.10;;;6.57;;
27225;SDS011;14732;51.074;3.788;2023-12-07T13:13:40;9.18;;;6.45;;
27225;SDS011;14732;51.074;3.788;2023-12-07T13:16:06;11.82;;;6.40;;
27225;SDS011;14732;51.074;3.788;2023-12-07T13:18:32;12.32;;;6.35;;
27225;SDS011;14732;51.074;3.788;2023-12-07T13:20:57;13.40;;;6.45;;
27225;SDS011;14732;51.074;3.788;2023-12-07T13:23:24;12.07;;;6.13;;
27225;SDS011;14732;51.074;3.788;2023-12-07T13:25:50;12.35;;;6.43;;
27225;SDS011;14732;51.074;3.788;2023-12-07T13:28:16;11.95;;;5.75;;
27225;SDS011;14732;51.074;3.788;2023-12-07T13:30:42;10.40;;;6.05;;
27225;SDS011;14732;51.074;3.788;2023-12-07T13:33:08;14.02;;;6.15;;
27225;SDS011;14732;51.074;3.788;2023-12-07T13:35:34;9.85;;;5.93;;
27225;SDS011;14732;51.074;3.788;2023-12-07T13:38:00;13.93;;;5.43;;
27225;SDS011;14732;51.074;3.788;2023-12-07T13:40:26;13.32;;;6.50;;
27225;SDS011;14732;51.074;3.788;2023-12-07T13:42:52;9.30;;;5.57;;
27225;SDS011;14732;51.074;3.788;2023-12-07T13:45:18;8.48;;;5.57;;
27225;SDS011;14732;51.074;3.788;2023-12-07T13:47:44;8.38;;;5.38;;
27225;SDS011;14732;51.074;3.788;2023-12-07T13:50:10;11.38;;;5.50;;
27225;SDS011;14732;51.074;3.788;2023-12-07T13:52:37;9.68;;;5.53;;
27225;SDS011;14732;51.074;3.788;2023-12-07T13:55:03;9.68;;;5.28;;
27225;SDS011;14732;51.074;3.788;2023-12-07T13:57:29;11.23;;;5.38;;
27225;SDS011;14732;51.074;3.788;2023-12-07T13:59:55;8.65;;;4.85;;
27225;SDS011;14732;51.074;3.788;2023-12-07T14:02:21;7.85;;;5.43;;
27225;SDS011;14732;51.074;3.788;2023-12-07T14:04:48;10.13;;;5.32;;
27225;SDS011;14732;51.074;3.788;2023-12-07T14:07:18;10.80;;;5.18;;
27225;SDS011;14732;51.074;3.788;2023-12-07T14:09:46;9.70;;;5.30;;
27225;SDS011;14732;51.074;3.788;2023-12-07T14:12:14;8.63;;;5.00;;
27225;SDS011;14732;51.074;3.788;2023-12-07T14:14:43;11.77;;;5.30;;
27225;SDS011;14732;51.074;3.788;2023-12-07T14:17:16;10.55;;;5.97;;
27225;SDS011;14732;51.074;3.788;2023-12-07T14:19:43;15.90;;;10.32;;
27225;SDS011;14732;51.074;3.788;2023-12-07T14:22:08;9.07;;;5.80;;
27225;SDS011;14732;51.074;3.788;2023-12-07T14:24:35;8.13;;;5.10;;
27225;SDS011;14732;51.074;3.788;2023-12-07T14:27:04;12.02;;;6.07;;